createdAt,value
2015-11-21T00:00:11.306Z,71943
2015-11-21T00:00:23.649Z,71940
2015-11-21T00:00:35.274Z,71941
2015-11-21T00:00:47.649Z,71941
2015-11-21T00:01:00.118Z,71937
2015-11-21T00:01:12.481Z,71917
2015-11-21T00:01:24.871Z,71903
2015-11-21T00:01:37.246Z,71897
2015-11-21T00:01:49.606Z,71901
2015-11-21T00:02:01.949Z,71909
2015-11-21T00:02:14.374Z,71915
2015-11-21T00:02:26.749Z,71924
2015-11-21T00:02:39.093Z,71932
2015-11-21T00:02:51.437Z,71934
2015-11-21T00:03:03.890Z,71933
2015-11-21T00:03:16.298Z,71917
2015-11-21T00:03:28.642Z,71915
2015-11-21T00:03:41.017Z,71926
2015-11-21T00:03:53.392Z,71942
2015-11-21T00:04:05.767Z,71941
2015-11-21T00:04:18.114Z,71954
2015-11-21T00:04:30.582Z,71952
2015-11-21T00:04:42.926Z,71954
2015-11-21T00:04:55.254Z,71938
2015-11-21T00:05:07.598Z,71914
2015-11-21T00:05:19.945Z,71914
2015-11-21T00:05:32.288Z,71933
2015-11-21T00:05:44.648Z,71929
2015-11-21T00:05:57.007Z,71922
2015-11-21T00:06:09.367Z,71920
2015-11-21T00:06:21.759Z,71915
2015-11-21T00:06:33.994Z,71911
2015-11-21T00:06:46.369Z,71912
2015-11-21T00:06:58.728Z,71910
2015-11-21T00:07:11.087Z,71909
2015-11-21T00:07:23.278Z,71920
2015-11-21T00:07:35.622Z,71919
2015-11-21T00:07:47.965Z,71915
2015-11-21T00:08:00.325Z,71897
2015-11-21T00:08:12.668Z,71880
2015-11-21T00:08:25.031Z,71880
2015-11-21T00:08:37.406Z,71882
2015-11-21T00:08:49.750Z,71888
2015-11-21T00:09:02.156Z,71887
2015-11-21T00:09:14.799Z,71894
2015-11-21T00:09:27.159Z,71878
2015-11-21T00:09:39.518Z,71877
2015-11-21T00:09:51.862Z,71881
2015-11-21T00:10:04.221Z,71887
2015-11-21T00:10:15.880Z,71897
2015-11-21T00:10:28.223Z,71887
2015-11-21T00:10:40.614Z,71890
2015-11-21T00:10:52.973Z,71889
2015-11-21T00:11:05.380Z,71891
2015-11-21T00:11:17.726Z,71892
2015-11-21T00:11:30.086Z,71898
2015-11-21T00:11:42.414Z,71908
2015-11-21T00:11:54.773Z,71912
2015-11-21T00:12:07.101Z,71910
2015-11-21T00:12:19.556Z,71899
2015-11-21T00:12:31.916Z,71896
2015-11-21T00:12:44.338Z,71891
2015-11-21T00:12:55.994Z,71882
2015-11-21T00:13:08.385Z,71872
2015-11-21T00:13:20.779Z,71860
2015-11-21T00:13:33.123Z,71858
2015-11-21T00:13:45.482Z,71860
2015-11-21T00:13:57.889Z,71856
2015-11-21T00:14:10.123Z,71872
2015-11-21T00:14:22.469Z,71872
2015-11-21T00:14:34.797Z,71881
2015-11-21T00:14:47.141Z,71887
2015-11-21T00:14:59.500Z,71886
2015-11-21T00:15:11.859Z,71888
2015-11-21T00:15:24.331Z,71893
2015-11-21T00:15:36.722Z,71890
2015-11-21T00:15:49.081Z,71892
2015-11-21T00:16:01.425Z,71882
2015-11-21T00:16:13.800Z,71890
2015-11-21T00:16:26.239Z,71898
2015-11-21T00:16:37.927Z,71890
2015-11-21T00:16:50.286Z,71893
2015-11-21T00:17:02.646Z,71900
2015-11-21T00:17:14.989Z,71890
2015-11-21T00:17:27.320Z,71895
2015-11-21T00:17:39.711Z,71898
2015-11-21T00:17:52.164Z,71894
2015-11-21T00:18:04.508Z,71895
2015-11-21T00:18:16.852Z,71881
2015-11-21T00:18:29.214Z,71887
2015-11-21T00:18:41.573Z,71900
2015-11-21T00:18:53.948Z,71901
2015-11-21T00:19:06.355Z,71888
2015-11-21T00:19:18.761Z,71879
2015-11-21T00:19:31.139Z,71879
2015-11-21T00:19:43.483Z,71884
2015-11-21T00:19:55.811Z,71883
2015-11-21T00:20:08.155Z,71892
2015-11-21T00:20:20.498Z,71897
2015-11-21T00:20:32.907Z,71901
2015-11-21T00:20:45.297Z,71889
2015-11-21T00:20:57.657Z,71875
2015-11-21T00:21:10.078Z,71852
2015-11-21T00:21:22.453Z,71850
2015-11-21T00:21:34.847Z,71855
2015-11-21T00:21:47.191Z,71864
2015-11-21T00:21:59.535Z,71877
2015-11-21T00:22:11.878Z,71886
2015-11-21T00:22:24.225Z,71880
2015-11-21T00:22:36.616Z,71885
2015-11-21T00:22:48.959Z,71887
2015-11-21T00:23:01.303Z,71880
2015-11-21T00:23:13.694Z,71870
2015-11-21T00:23:26.056Z,71862
2015-11-21T00:23:38.431Z,71858
2015-11-21T00:23:50.806Z,71869
2015-11-21T00:24:03.150Z,71866
2015-11-21T00:24:15.494Z,71883
2015-11-21T00:24:27.122Z,71892
2015-11-21T00:24:39.465Z,71904
2015-11-21T00:24:51.903Z,71919
2015-11-21T00:25:04.309Z,71925
2015-11-21T00:25:16.637Z,71926
2015-11-21T00:25:28.999Z,71888
2015-11-21T00:25:41.405Z,71859
2015-11-21T00:25:53.780Z,71858
2015-11-21T00:26:06.233Z,71861
2015-11-21T00:26:18.608Z,71857
2015-11-21T00:26:30.970Z,71875
2015-11-21T00:26:43.314Z,71878
2015-11-21T00:26:55.658Z,71894
2015-11-21T00:27:08.017Z,71912
2015-11-21T00:27:20.361Z,71921
2015-11-21T00:27:32.755Z,71917
2015-11-21T00:27:45.130Z,71902
2015-11-21T00:27:57.536Z,71879
2015-11-21T00:28:09.880Z,71877
2015-11-21T00:28:21.505Z,71875
2015-11-21T00:28:33.835Z,71881
2015-11-21T00:28:46.179Z,71890
2015-11-21T00:28:58.522Z,71897
2015-11-21T00:29:11.132Z,71905
2015-11-21T00:29:23.460Z,71908
2015-11-21T00:29:35.838Z,71906
2015-11-21T00:29:48.197Z,71885
2015-11-21T00:30:00.572Z,71883
2015-11-21T00:30:12.947Z,71887
2015-11-21T00:30:24.603Z,71890
2015-11-21T00:30:36.981Z,71888
2015-11-21T00:30:49.325Z,71901
2015-11-21T00:31:01.669Z,71921
2015-11-21T00:31:13.997Z,71926
2015-11-21T00:31:26.341Z,71929
2015-11-21T00:31:38.687Z,71926
2015-11-21T00:31:51.030Z,71926
2015-11-21T00:32:03.390Z,71922
2015-11-21T00:32:15.780Z,71920
2015-11-21T00:32:28.233Z,71916
2015-11-21T00:32:40.565Z,71913
2015-11-21T00:32:52.908Z,71912
2015-11-21T00:33:05.252Z,71904
2015-11-21T00:33:17.596Z,71897
2015-11-21T00:33:29.955Z,71905
2015-11-21T00:33:42.380Z,71897
2015-11-21T00:33:54.771Z,71893
2015-11-21T00:34:07.099Z,71901
2015-11-21T00:34:19.443Z,71900
2015-11-21T00:34:31.788Z,71904
2015-11-21T00:34:44.179Z,71911
2015-11-21T00:34:56.585Z,71918
2015-11-21T00:35:08.960Z,71923
2015-11-21T00:35:21.335Z,71918
2015-11-21T00:35:33.713Z,71908
2015-11-21T00:35:46.057Z,71909
2015-11-21T00:35:58.416Z,71905
2015-11-21T00:36:10.791Z,71897
2015-11-21T00:36:23.119Z,71888
2015-11-21T00:36:35.482Z,71893
2015-11-21T00:36:47.826Z,71890
2015-11-21T00:37:00.185Z,71896
2015-11-21T00:37:12.529Z,71909
2015-11-21T00:37:24.872Z,71921
2015-11-21T00:37:37.282Z,71921
2015-11-21T00:37:49.719Z,71901
2015-11-21T00:38:02.063Z,71848
2015-11-21T00:38:14.407Z,71856
2015-11-21T00:38:26.750Z,71862
2015-11-21T00:38:39.096Z,71874
2015-11-21T00:38:51.471Z,71884
2015-11-21T00:39:03.831Z,71894
2015-11-21T00:39:16.174Z,71896
2015-11-21T00:39:28.549Z,71887
2015-11-21T00:39:40.912Z,71893
2015-11-21T00:39:53.302Z,71892
2015-11-21T00:40:05.771Z,71895
2015-11-21T00:40:17.474Z,71899
2015-11-21T00:40:29.802Z,71888
2015-11-21T00:40:42.148Z,71890
2015-11-21T00:40:54.492Z,71892
2015-11-21T00:41:06.820Z,71896
2015-11-21T00:41:19.211Z,71889
2015-11-21T00:41:31.632Z,71895
2015-11-21T00:41:43.979Z,71898
2015-11-21T00:41:56.354Z,71909
2015-11-21T00:42:08.792Z,71915
2015-11-21T00:42:21.167Z,71921
2015-11-21T00:42:33.545Z,71922
2015-11-21T00:42:45.888Z,71917
2015-11-21T00:42:58.232Z,71913
2015-11-21T00:43:10.560Z,71910
2015-11-21T00:43:22.982Z,71901
2015-11-21T00:43:35.329Z,71897
2015-11-21T00:43:47.673Z,71887
2015-11-21T00:44:00.016Z,71883
2015-11-21T00:44:12.360Z,71880
2015-11-21T00:44:24.735Z,71896
2015-11-21T00:44:37.097Z,71897
2015-11-21T00:44:49.487Z,71886
2015-11-21T00:45:01.925Z,71904
2015-11-21T00:45:14.284Z,71905
2015-11-21T00:45:26.612Z,71907
2015-11-21T00:45:38.959Z,71900
2015-11-21T00:45:51.303Z,71888
2015-11-21T00:46:03.646Z,71882
2015-11-21T00:46:16.006Z,71892
2015-11-21T00:46:28.350Z,71897
2015-11-21T00:46:40.712Z,71900
2015-11-21T00:46:53.071Z,71905
2015-11-21T00:47:05.462Z,71899
2015-11-21T00:47:17.853Z,71904
2015-11-21T00:47:30.243Z,71903
2015-11-21T00:47:42.589Z,71890
2015-11-21T00:47:54.964Z,71897
2015-11-21T00:48:07.308Z,71894
2015-11-21T00:48:19.651Z,71894
2015-11-21T00:48:31.995Z,71896
2015-11-21T00:48:44.342Z,71888
2015-11-21T00:48:56.717Z,71883
2015-11-21T00:49:08.358Z,71892
2015-11-21T00:49:20.733Z,71894
2015-11-21T00:49:33.076Z,71900
2015-11-21T00:49:45.423Z,71906
2015-11-21T00:49:57.751Z,71904
2015-11-21T00:50:10.111Z,71905
2015-11-21T00:50:22.454Z,71905
2015-11-21T00:50:34.798Z,71895
2015-11-21T00:50:47.176Z,71895
2015-11-21T00:50:58.832Z,71896
2015-11-21T00:51:11.207Z,71894
2015-11-21T00:51:23.567Z,71901
2015-11-21T00:51:35.895Z,71907
2015-11-21T00:51:48.241Z,71903
2015-11-21T00:52:00.584Z,71898
2015-11-21T00:52:12.959Z,71893
2015-11-21T00:52:25.319Z,71886
2015-11-21T00:52:37.647Z,71885
2015-11-21T00:52:50.040Z,71885
2015-11-21T00:53:02.400Z,71888
2015-11-21T00:53:14.775Z,71883
2015-11-21T00:53:27.165Z,71880
2015-11-21T00:53:39.540Z,71868
2015-11-21T00:53:51.918Z,71872
2015-11-21T00:54:04.325Z,71880
2015-11-21T00:54:16.684Z,71886
2015-11-21T00:54:29.028Z,71871
2015-11-21T00:54:41.622Z,71873
2015-11-21T00:54:53.968Z,71875
2015-11-21T00:55:06.343Z,71864
2015-11-21T00:55:18.703Z,71861
2015-11-21T00:55:31.062Z,71859
2015-11-21T00:55:43.421Z,71861
2015-11-21T00:55:55.799Z,71870
2015-11-21T00:56:08.174Z,71871
2015-11-21T00:56:20.549Z,71872
2015-11-21T00:56:32.940Z,71871
2015-11-21T00:56:45.346Z,71872
2015-11-21T00:56:57.708Z,71874
2015-11-21T00:57:10.067Z,71878
2015-11-21T00:57:22.411Z,71891
2015-11-21T00:57:34.786Z,71883
2015-11-21T00:57:47.130Z,71881
2015-11-21T00:57:59.476Z,71879
2015-11-21T00:58:11.914Z,71882
2015-11-21T00:58:24.320Z,71892
2015-11-21T00:58:36.648Z,71882
2015-11-21T00:58:49.008Z,71881
2015-11-21T00:59:01.338Z,71876
2015-11-21T00:59:12.978Z,71874
2015-11-21T00:59:25.322Z,71880
2015-11-21T00:59:37.681Z,71889
2015-11-21T00:59:50.059Z,71887
2015-11-21T01:00:02.419Z,71883
2015-11-21T01:00:14.763Z,71879
2015-11-21T01:00:27.106Z,71878
2015-11-21T01:00:39.450Z,71873
2015-11-21T01:00:51.797Z,71889
2015-11-21T01:01:04.141Z,71888
2015-11-21T01:01:15.766Z,71888
2015-11-21T01:01:28.109Z,71883
2015-11-21T01:01:40.500Z,71888
2015-11-21T01:01:52.878Z,71899
2015-11-21T01:02:05.253Z,71903
2015-11-21T01:02:17.644Z,71899
2015-11-21T01:02:29.987Z,71890
2015-11-21T01:02:42.362Z,71877
2015-11-21T01:02:54.724Z,71886
2015-11-21T01:03:07.067Z,71892
2015-11-21T01:03:19.411Z,71884
2015-11-21T01:03:31.755Z,71895
2015-11-21T01:03:44.255Z,71895
2015-11-21T01:03:56.618Z,71885
2015-11-21T01:04:08.978Z,71885
2015-11-21T01:04:21.368Z,71881
2015-11-21T01:04:33.775Z,71884
2015-11-21T01:04:46.103Z,71875
2015-11-21T01:04:57.762Z,71880
2015-11-21T01:05:10.106Z,71877
2015-11-21T01:05:22.449Z,71881
2015-11-21T01:05:34.793Z,71881
2015-11-21T01:05:47.121Z,71867
2015-11-21T01:05:59.467Z,71869
2015-11-21T01:06:11.842Z,71890
2015-11-21T01:06:24.186Z,71887
2015-11-21T01:06:36.576Z,71891
2015-11-21T01:06:49.014Z,71892
2015-11-21T01:07:01.345Z,71890
2015-11-21T01:07:13.689Z,71888
2015-11-21T01:07:26.033Z,71893
2015-11-21T01:07:38.376Z,71889
2015-11-21T01:07:50.736Z,71866
2015-11-21T01:08:03.097Z,71859
2015-11-21T01:08:15.488Z,71861
2015-11-21T01:08:27.847Z,71864
2015-11-21T01:08:40.300Z,71866
2015-11-21T01:08:52.753Z,71865
2015-11-21T01:09:05.084Z,71866
2015-11-21T01:09:17.428Z,71877
2015-11-21T01:09:29.756Z,71883
2015-11-21T01:09:42.100Z,71892
2015-11-21T01:09:54.491Z,71893
2015-11-21T01:10:06.962Z,71892
2015-11-21T01:10:19.322Z,71887
2015-11-21T01:10:30.978Z,71880
2015-11-21T01:10:43.353Z,71878
2015-11-21T01:10:55.744Z,71885
2015-11-21T01:11:08.089Z,71884
2015-11-21T01:11:20.433Z,71887
2015-11-21T01:11:32.621Z,71896
2015-11-21T01:11:44.808Z,71906
2015-11-21T01:11:57.152Z,71890
2015-11-21T01:12:09.530Z,71878
2015-11-21T01:12:21.889Z,71873
2015-11-21T01:12:34.264Z,71879
2015-11-21T01:12:46.639Z,71883
2015-11-21T01:12:58.999Z,71880
2015-11-21T01:13:11.392Z,71869
2015-11-21T01:13:23.783Z,71873
2015-11-21T01:13:36.127Z,71882
2015-11-21T01:13:48.455Z,71885
2015-11-21T01:14:00.799Z,71883
2015-11-21T01:14:13.177Z,71871
2015-11-21T01:14:25.536Z,71857
2015-11-21T01:14:37.880Z,71854
2015-11-21T01:14:50.223Z,71861
2015-11-21T01:15:02.583Z,71868
2015-11-21T01:15:14.945Z,71871
2015-11-21T01:15:27.383Z,71876
2015-11-21T01:15:39.789Z,71877
2015-11-21T01:15:52.133Z,71878
2015-11-21T01:16:04.476Z,71885
2015-11-21T01:16:16.822Z,71880
2015-11-21T01:16:29.166Z,71873
2015-11-21T01:16:41.525Z,71871
2015-11-21T01:16:53.869Z,71877
2015-11-21T01:17:06.216Z,71877
2015-11-21T01:17:18.622Z,71871
2015-11-21T01:17:30.981Z,71873
2015-11-21T01:17:43.356Z,71869
2015-11-21T01:17:55.747Z,71875
2015-11-21T01:18:08.108Z,71874
2015-11-21T01:18:20.468Z,71887
2015-11-21T01:18:32.890Z,71879
2015-11-21T01:18:45.249Z,71890
2015-11-21T01:18:57.593Z,71883
2015-11-21T01:19:09.955Z,71885
2015-11-21T01:19:22.299Z,71893
2015-11-21T01:19:34.643Z,71883
2015-11-21T01:19:46.986Z,71873
2015-11-21T01:19:59.330Z,71864
2015-11-21T01:20:11.708Z,71859
2015-11-21T01:20:24.068Z,71843
2015-11-21T01:20:36.396Z,71839
2015-11-21T01:20:48.068Z,71847
2015-11-21T01:21:00.427Z,71853
2015-11-21T01:21:12.774Z,71863
2015-11-21T01:21:25.117Z,71873
2015-11-21T01:21:37.477Z,71875
2015-11-21T01:21:49.821Z,71872
2015-11-21T01:22:02.180Z,71868
2015-11-21T01:22:14.558Z,71852
2015-11-21T01:22:26.808Z,71865
2015-11-21T01:23:02.167Z,71870
2015-11-21T01:23:14.513Z,71848
2015-11-21T01:23:26.857Z,71853
2015-11-21T01:23:39.201Z,71865
2015-11-21T01:23:51.529Z,71874
2015-11-21T01:24:03.888Z,71868
2015-11-21T01:24:16.296Z,71866
2015-11-21T01:24:28.671Z,71863
2015-11-21T01:24:41.062Z,71868
2015-11-21T01:24:53.421Z,71873
2015-11-21T01:25:05.765Z,71868
2015-11-21T01:25:18.112Z,71870
2015-11-21T01:25:30.456Z,71873
2015-11-21T01:25:42.799Z,71871
2015-11-21T01:25:54.440Z,71865
2015-11-21T01:26:06.096Z,71865
2015-11-21T01:26:18.490Z,71866
2015-11-21T01:26:30.849Z,71875
2015-11-21T01:26:43.224Z,71877
2015-11-21T01:26:55.599Z,71877
2015-11-21T01:27:07.990Z,71883
2015-11-21T01:27:20.416Z,71890
2015-11-21T01:27:32.744Z,71884
2015-11-21T01:27:45.088Z,71882
2015-11-21T01:27:57.431Z,71875
2015-11-21T01:28:09.759Z,71870
2015-11-21T01:28:22.105Z,71869
2015-11-21T01:28:34.480Z,71867
2015-11-21T01:28:46.824Z,71863
2015-11-21T01:28:59.199Z,71857
2015-11-21T01:29:11.558Z,71868
2015-11-21T01:29:23.936Z,71871
2015-11-21T01:29:36.296Z,71869
2015-11-21T01:29:48.639Z,71862
2015-11-21T01:30:00.983Z,71859
2015-11-21T01:30:13.311Z,71859
2015-11-21T01:30:25.657Z,71868
2015-11-21T01:30:38.095Z,71869
2015-11-21T01:30:50.438Z,71870
2015-11-21T01:31:02.798Z,71876
2015-11-21T01:31:15.141Z,71871
2015-11-21T01:31:27.535Z,71872
2015-11-21T01:31:39.957Z,71857
2015-11-21T01:31:52.316Z,71853
2015-11-21T01:32:04.723Z,71860
2015-11-21T01:32:17.098Z,71861
2015-11-21T01:32:29.444Z,71862
2015-11-21T01:32:41.804Z,71869
2015-11-21T01:32:54.132Z,71870
2015-11-21T01:33:06.585Z,71868
2015-11-21T01:33:19.007Z,71859
2015-11-21T01:33:31.369Z,71857
2015-11-21T01:33:43.744Z,71854
2015-11-21T01:33:56.104Z,71845
2015-11-21T01:34:08.432Z,71849
2015-11-21T01:34:20.775Z,71851
2015-11-21T01:34:33.121Z,71847
2015-11-21T01:34:45.527Z,71859
2015-11-21T01:34:57.871Z,71862
2015-11-21T01:35:10.293Z,71865
2015-11-21T01:35:22.652Z,71857
2015-11-21T01:35:35.015Z,71862
2015-11-21T01:35:47.374Z,71856
2015-11-21T01:35:59.734Z,71844
2015-11-21T01:36:12.077Z,71830
2015-11-21T01:36:24.721Z,71840
2015-11-21T01:36:37.065Z,71849
2015-11-21T01:36:49.424Z,71854
2015-11-21T01:37:01.783Z,71857
2015-11-21T01:37:14.143Z,71858
2015-11-21T01:37:26.505Z,71853
2015-11-21T01:37:38.833Z,71860
2015-11-21T01:37:51.177Z,71866
2015-11-21T01:38:03.536Z,71864
2015-11-21T01:38:15.896Z,71858
2015-11-21T01:38:28.242Z,71861
2015-11-21T01:38:40.601Z,71865
2015-11-21T01:38:52.976Z,71864
2015-11-21T01:39:05.335Z,71860
2015-11-21T01:39:17.710Z,71843
2015-11-21T01:39:30.073Z,71847
2015-11-21T01:39:42.416Z,71849
2015-11-21T01:39:54.791Z,71849
2015-11-21T01:40:06.979Z,71852
2015-11-21T01:40:19.416Z,71855
2015-11-21T01:40:31.778Z,71862
2015-11-21T01:40:44.137Z,71853
2015-11-21T01:40:56.481Z,71849
2015-11-21T01:41:08.840Z,71847
2015-11-21T01:41:20.481Z,71841
2015-11-21T01:41:32.859Z,71854
2015-11-21T01:41:45.203Z,71853
2015-11-21T01:41:57.531Z,71856
2015-11-21T01:42:09.890Z,71862
2015-11-21T01:42:22.234Z,71858
2015-11-21T01:42:34.612Z,71864
2015-11-21T01:42:46.971Z,71847
2015-11-21T01:42:59.190Z,71837
2015-11-21T01:43:11.581Z,71831
2015-11-21T01:43:23.924Z,71838
2015-11-21T01:43:36.256Z,71830
2015-11-21T01:43:48.599Z,71834
2015-11-21T01:44:00.927Z,71835
2015-11-21T01:44:13.271Z,71830
2015-11-21T01:44:25.615Z,71836
2015-11-21T01:44:37.977Z,71832
2015-11-21T01:44:50.337Z,71836
2015-11-21T01:45:02.712Z,71829
2015-11-21T01:45:15.118Z,71826
2015-11-21T01:45:27.462Z,71819
2015-11-21T01:45:39.807Z,71828
2015-11-21T01:45:52.136Z,71844
2015-11-21T01:46:04.495Z,71846
2015-11-21T01:46:16.823Z,71844
2015-11-21T01:46:29.182Z,71839
2015-11-21T01:46:41.545Z,71828
2015-11-21T01:46:53.904Z,71821
2015-11-21T01:47:06.248Z,71816
2015-11-21T01:47:18.654Z,71826
2015-11-21T01:47:30.985Z,71836
2015-11-21T01:47:43.329Z,71844
2015-11-21T01:47:55.673Z,71845
2015-11-21T01:48:08.017Z,71839
2015-11-21T01:48:20.360Z,71836
2015-11-21T01:48:32.722Z,71833
2015-11-21T01:48:45.081Z,71831
2015-11-21T01:48:57.456Z,71821
2015-11-21T01:49:09.815Z,71811
2015-11-21T01:49:22.159Z,71816
2015-11-21T01:49:34.506Z,71824
2015-11-21T01:49:46.850Z,71828
2015-11-21T01:49:59.193Z,71837
2015-11-21T01:50:11.537Z,71825
2015-11-21T01:50:23.881Z,71818
2015-11-21T01:50:36.242Z,71814
2015-11-21T01:50:48.602Z,71809
2015-11-21T01:51:00.961Z,71819
2015-11-21T01:51:13.352Z,71819
2015-11-21T01:51:25.727Z,71815
2015-11-21T01:51:38.073Z,71817
2015-11-21T01:51:50.464Z,71832
2015-11-21T01:52:02.792Z,71822
2015-11-21T01:52:15.152Z,71827
2015-11-21T01:52:27.527Z,71827
2015-11-21T01:52:39.858Z,71829
2015-11-21T01:52:52.201Z,71837
2015-11-21T01:53:04.576Z,71838
2015-11-21T01:53:16.936Z,71829
2015-11-21T01:53:29.295Z,71832
2015-11-21T01:53:41.673Z,71824
2015-11-21T01:53:54.048Z,71814
2015-11-21T01:54:06.439Z,71820
2015-11-21T01:54:18.064Z,71824
2015-11-21T01:54:30.408Z,71827
2015-11-21T01:54:42.754Z,71812
2015-11-21T01:54:55.098Z,71816
2015-11-21T01:55:07.442Z,71816
2015-11-21T01:55:19.848Z,71821
2015-11-21T01:55:32.270Z,71817
2015-11-21T01:55:44.632Z,71834
2015-11-21T01:55:57.007Z,71837
2015-11-21T01:56:09.367Z,71815
2015-11-21T01:56:21.710Z,71815
2015-11-21T01:56:34.054Z,71809
2015-11-21T01:56:44.978Z,71818
2015-11-21T01:56:57.322Z,71818
2015-11-21T01:57:09.681Z,71823
2015-11-21T01:57:21.947Z,71823
2015-11-21T01:57:34.384Z,71828
2015-11-21T01:57:46.762Z,71812
2015-11-21T01:57:59.122Z,71812
2015-11-21T01:58:11.465Z,71819
2015-11-21T01:58:23.794Z,71818
2015-11-21T01:58:36.137Z,71824
2015-11-21T01:58:48.468Z,71823
2015-11-21T01:59:00.828Z,71820
2015-11-21T01:59:13.172Z,71819
2015-11-21T01:59:25.547Z,71818
2015-11-21T01:59:37.890Z,71826
2015-11-21T01:59:50.236Z,71823
2015-11-21T02:00:02.580Z,71818
2015-11-21T02:00:14.236Z,71820
2015-11-21T02:00:26.611Z,71826
2015-11-21T02:00:38.986Z,71831
2015-11-21T02:00:51.333Z,71825
2015-11-21T02:01:03.692Z,71830
2015-11-21T02:01:16.130Z,71825
2015-11-21T02:01:28.583Z,71822
2015-11-21T02:01:40.973Z,71820
2015-11-21T02:01:53.320Z,71816
2015-11-21T02:02:05.648Z,71815
2015-11-21T02:02:17.992Z,71819
2015-11-21T02:02:30.336Z,71809
2015-11-21T02:02:42.776Z,71823
2015-11-21T02:02:55.167Z,71827
2015-11-21T02:03:07.511Z,71825
2015-11-21T02:03:19.854Z,71825
2015-11-21T02:03:32.073Z,71836
2015-11-21T02:03:44.451Z,71835
2015-11-21T02:03:56.842Z,71838
2015-11-21T02:04:09.264Z,71841
2015-11-21T02:04:21.670Z,71835
2015-11-21T02:04:34.014Z,71825
2015-11-21T02:04:46.359Z,71827
2015-11-21T02:04:58.703Z,71829
2015-11-21T02:05:11.047Z,71825
2015-11-21T02:05:23.391Z,71822
2015-11-21T02:05:35.813Z,71815
2015-11-21T02:05:48.158Z,71812
2015-11-21T02:06:00.549Z,71814
2015-11-21T02:06:12.908Z,71804
2015-11-21T02:06:25.252Z,71814
2015-11-21T02:06:37.596Z,71811
2015-11-21T02:06:49.927Z,71809
2015-11-21T02:07:02.271Z,71814
2015-11-21T02:07:14.630Z,71816
2015-11-21T02:07:27.036Z,71807
2015-11-21T02:07:39.427Z,71804
2015-11-21T02:07:51.805Z,71804
2015-11-21T02:08:04.196Z,71808
2015-11-21T02:08:16.555Z,71816
2015-11-21T02:08:28.899Z,71811
2015-11-21T02:08:40.524Z,71819
2015-11-21T02:08:52.917Z,71815
2015-11-21T02:09:05.292Z,71818
2015-11-21T02:09:17.652Z,71820
2015-11-21T02:09:29.995Z,71819
2015-11-21T02:09:42.370Z,71813
2015-11-21T02:09:54.747Z,71812
2015-11-21T02:10:07.169Z,71803
2015-11-21T02:10:19.513Z,71803
2015-11-21T02:10:31.154Z,71803
2015-11-21T02:10:43.497Z,71802
2015-11-21T02:10:55.844Z,71799
2015-11-21T02:11:08.188Z,71795
2015-11-21T02:11:20.563Z,71798
2015-11-21T02:11:32.907Z,71802
2015-11-21T02:11:45.250Z,71805
2015-11-21T02:11:57.613Z,71808
2015-11-21T02:12:09.363Z,71810
2015-11-21T02:12:21.753Z,71806
2015-11-21T02:12:33.394Z,71802
2015-11-21T02:12:45.738Z,71803
2015-11-21T02:12:57.380Z,71806
2015-11-21T02:13:09.709Z,71806
2015-11-21T02:13:22.084Z,71808
2015-11-21T02:13:34.443Z,71807
2015-11-21T02:13:46.787Z,71806
2015-11-21T02:13:59.133Z,71803
2015-11-21T02:14:11.477Z,71807
2015-11-21T02:14:23.868Z,71796
2015-11-21T02:14:36.290Z,71801
2015-11-21T02:14:48.633Z,71801
2015-11-21T02:15:00.980Z,71798
2015-11-21T02:15:13.308Z,71796
2015-11-21T02:15:25.652Z,71798
2015-11-21T02:15:38.011Z,71798
2015-11-21T02:15:50.386Z,71796
2015-11-21T02:16:02.749Z,71796
2015-11-21T02:16:15.108Z,71796
2015-11-21T02:16:27.452Z,71804
2015-11-21T02:16:39.843Z,71801
2015-11-21T02:16:52.202Z,71807
2015-11-21T02:17:04.549Z,71807
2015-11-21T02:17:16.736Z,71805
2015-11-21T02:17:29.080Z,71803
2015-11-21T02:17:41.455Z,71804
2015-11-21T02:17:53.799Z,71807
2015-11-21T02:18:06.144Z,71811
2015-11-21T02:18:18.519Z,71812
2015-11-21T02:18:30.894Z,71811
2015-11-21T02:18:43.269Z,71814
2015-11-21T02:18:55.663Z,71807
2015-11-21T02:19:08.054Z,71810
2015-11-21T02:19:20.444Z,71812
2015-11-21T02:19:32.804Z,71814
2015-11-21T02:19:45.132Z,71814
2015-11-21T02:19:57.494Z,71813
2015-11-21T02:20:09.854Z,71811
2015-11-21T02:20:22.213Z,71808
2015-11-21T02:20:34.588Z,71814
2015-11-21T02:20:46.994Z,71812
2015-11-21T02:20:59.324Z,71811
2015-11-21T02:21:11.668Z,71814
2015-11-21T02:21:23.996Z,71805
2015-11-21T02:21:36.340Z,71802
2015-11-21T02:21:48.699Z,71804
2015-11-21T02:22:01.031Z,71801
2015-11-21T02:22:13.375Z,71807
2015-11-21T02:22:25.735Z,71807
2015-11-21T02:22:38.078Z,71800
2015-11-21T02:22:50.469Z,71792
2015-11-21T02:23:02.877Z,71786
2015-11-21T02:23:15.268Z,71785
2015-11-21T02:23:27.596Z,71797
2015-11-21T02:23:39.940Z,71792
2015-11-21T02:23:52.299Z,71796
2015-11-21T02:24:04.661Z,71792
2015-11-21T02:24:17.068Z,71788
2015-11-21T02:24:29.474Z,71787
2015-11-21T02:24:41.833Z,71792
2015-11-21T02:24:53.458Z,71795
2015-11-21T02:25:05.804Z,71796
2015-11-21T02:25:18.163Z,71800
2015-11-21T02:25:30.492Z,71802
2015-11-21T02:25:42.835Z,71799
2015-11-21T02:25:55.179Z,71802
2015-11-21T02:26:07.604Z,71806
2015-11-21T02:26:19.948Z,71803
2015-11-21T02:26:32.338Z,71799
2015-11-21T02:26:44.557Z,71799
2015-11-21T02:26:56.916Z,71795
2015-11-21T02:27:09.294Z,71787
2015-11-21T02:27:21.638Z,71778
2015-11-21T02:27:33.998Z,71784
2015-11-21T02:27:46.341Z,71789
2015-11-21T02:27:58.044Z,71789
2015-11-21T02:28:10.421Z,71779
2015-11-21T02:28:22.765Z,71776
2015-11-21T02:28:35.109Z,71779
2015-11-21T02:28:47.468Z,71779
2015-11-21T02:28:59.828Z,71784
2015-11-21T02:29:12.190Z,71790
2015-11-21T02:29:24.565Z,71792
2015-11-21T02:29:36.909Z,71791
2015-11-21T02:29:49.237Z,71794
2015-11-21T02:30:01.581Z,71786
2015-11-21T02:30:13.927Z,71792
2015-11-21T02:30:26.256Z,71794
2015-11-21T02:30:38.599Z,71794
2015-11-21T02:30:50.959Z,71793
2015-11-21T02:31:03.302Z,71795
2015-11-21T02:31:15.679Z,71786
2015-11-21T02:31:28.054Z,71782
2015-11-21T02:31:40.289Z,71780
2015-11-21T02:31:52.664Z,71782
2015-11-21T02:32:05.008Z,71786
2015-11-21T02:32:17.340Z,71790
2015-11-21T02:32:28.980Z,71783
2015-11-21T02:32:41.308Z,71785
2015-11-21T02:32:53.652Z,71789
2015-11-21T02:33:05.996Z,71781
2015-11-21T02:33:18.342Z,71781
2015-11-21T02:33:30.560Z,71787
2015-11-21T02:33:42.951Z,71790
2015-11-21T02:33:55.310Z,71784
2015-11-21T02:34:07.701Z,71773
2015-11-21T02:34:20.079Z,71777
2015-11-21T02:34:32.407Z,71780
2015-11-21T02:34:44.751Z,71781
2015-11-21T02:34:57.095Z,71790
2015-11-21T02:35:09.423Z,71792
2015-11-21T02:35:21.770Z,71785
2015-11-21T02:35:34.113Z,71785
2015-11-21T02:35:46.457Z,71773
2015-11-21T02:35:58.832Z,71769
2015-11-21T02:36:11.035Z,71764
2015-11-21T02:36:23.475Z,71764
2015-11-21T02:36:35.928Z,71758
2015-11-21T02:36:48.287Z,71765
2015-11-21T02:37:00.647Z,71774
2015-11-21T02:37:12.975Z,71775
2015-11-21T02:37:25.321Z,71770
2015-11-21T02:37:37.696Z,71771
2015-11-21T02:37:50.103Z,71771
2015-11-21T02:38:02.462Z,71767
2015-11-21T02:38:14.868Z,71764
2015-11-21T02:38:27.215Z,71768
2015-11-21T02:38:38.856Z,71768
2015-11-21T02:38:51.199Z,71772
2015-11-21T02:39:03.559Z,71774
2015-11-21T02:39:15.887Z,71776